createdAt,value
2019-01-29T00:01:38.389Z,30.00
2019-01-29T00:04:11.507Z,29.33
2019-01-29T00:06:43.037Z,30.00
2019-01-29T00:09:15.900Z,30.07
2019-01-29T00:11:47.566Z,28.63
2019-01-29T00:14:19.228Z,28.37
2019-01-29T00:16:50.801Z,27.37
2019-01-29T00:19:22.343Z,28.93
2019-01-29T00:21:53.884Z,27.93
2019-01-29T00:24:25.293Z,28.13
2019-01-29T00:26:56.922Z,25.73
2019-01-29T00:29:28.538Z,25.80
2019-01-29T00:32:00.142Z,26.90
2019-01-29T00:34:31.794Z,26.70
2019-01-29T00:37:04.359Z,26.67
2019-01-29T00:39:36.089Z,26.10
2019-01-29T00:42:07.647Z,25.57
2019-01-29T00:44:40.291Z,27.03
2019-01-29T00:47:11.760Z,26.73
2019-01-29T00:49:43.244Z,26.80
2019-01-29T00:52:14.927Z,25.50
2019-01-29T00:54:48.686Z,24.33
2019-01-29T00:57:20.285Z,25.33
2019-01-29T00:59:52.485Z,24.30
2019-01-29T01:02:24.117Z,25.03
2019-01-29T01:04:55.690Z,24.00
2019-01-29T01:07:27.239Z,22.30
2019-01-29T01:09:59.021Z,20.27
2019-01-29T01:12:30.603Z,17.70
2019-01-29T01:15:03.887Z,15.67
2019-01-29T01:17:36.553Z,15.53
2019-01-29T01:20:10.389Z,17.43
2019-01-29T01:22:50.883Z,18.43
2019-01-29T01:25:19.709Z,18.27
2019-01-29T01:27:51.236Z,17.03
2019-01-29T01:30:22.982Z,17.07
2019-01-29T01:32:54.689Z,17.37
2019-01-29T01:35:26.414Z,21.33
2019-01-29T01:37:58.019Z,21.93
2019-01-29T01:40:29.837Z,22.33
2019-01-29T01:43:01.655Z,24.17
2019-01-29T01:45:33.287Z,23.97
2019-01-29T01:48:04.814Z,25.13
2019-01-29T01:50:36.435Z,25.60
2019-01-29T01:53:08.083Z,26.13
2019-01-29T01:55:39.656Z,24.73
2019-01-29T01:58:11.232Z,24.53
2019-01-29T02:00:42.924Z,25.60
2019-01-29T02:03:14.756Z,24.47
2019-01-29T02:05:46.285Z,23.00
2019-01-29T02:08:17.979Z,23.00
2019-01-29T02:10:49.534Z,23.67
2019-01-29T02:13:22.567Z,23.50
2019-01-29T02:15:54.102Z,22.17
2019-01-29T02:18:25.613Z,20.77
2019-01-29T02:20:57.268Z,22.03
2019-01-29T02:23:28.624Z,20.20
2019-01-29T02:26:00.326Z,20.80
2019-01-29T02:28:31.847Z,20.80
2019-01-29T02:31:04.411Z,20.73
2019-01-29T02:33:35.917Z,19.87
2019-01-29T02:36:07.457Z,21.07
2019-01-29T02:38:38.971Z,22.60
2019-01-29T02:41:10.462Z,26.10
2019-01-29T02:43:44.527Z,25.90
2019-01-29T02:46:16.257Z,23.63
2019-01-29T02:48:47.849Z,25.00
2019-01-29T02:51:20.783Z,25.37
2019-01-29T02:53:52.369Z,25.23
2019-01-29T02:56:23.956Z,25.70
2019-01-29T02:58:55.602Z,25.30
2019-01-29T03:01:27.241Z,22.10
2019-01-29T03:04:01.337Z,21.43
2019-01-29T03:06:33.122Z,23.30
2019-01-29T03:09:09.169Z,25.33
2019-01-29T03:11:40.453Z,26.17
2019-01-29T03:14:13.425Z,22.33
2019-01-29T03:16:45.009Z,24.07
2019-01-29T03:19:18.161Z,21.10
2019-01-29T03:21:49.839Z,21.53
2019-01-29T03:24:21.523Z,23.40
2019-01-29T03:26:53.244Z,23.30
2019-01-29T03:29:24.865Z,24.13
2019-01-29T03:31:56.411Z,17.27
2019-01-29T03:34:29.542Z,17.53
2019-01-29T03:37:04.273Z,17.10
2019-01-29T03:39:35.430Z,16.80
2019-01-29T03:42:07.105Z,28.47
2019-01-29T03:44:40.792Z,17.10
2019-01-29T03:47:12.456Z,20.87
2019-01-29T03:49:43.978Z,17.90
2019-01-29T03:52:15.787Z,21.60
2019-01-29T03:54:47.290Z,24.47
2019-01-29T03:57:19.029Z,26.13
2019-01-29T03:59:50.661Z,28.50
2019-01-29T04:02:22.216Z,29.57
2019-01-29T04:04:53.911Z,30.90
2019-01-29T04:07:25.745Z,24.63
2019-01-29T04:09:57.357Z,24.17
2019-01-29T04:12:29.039Z,22.43
2019-01-29T04:15:00.575Z,35.67
2019-01-29T04:17:32.220Z,60.03
2019-01-29T04:20:04.680Z,31.07
2019-01-29T04:22:36.365Z,26.63
2019-01-29T04:25:08.355Z,24.63
2019-01-29T04:27:39.962Z,41.50
2019-01-29T04:30:14.535Z,134.80
2019-01-29T04:32:46.099Z,29.47
2019-01-29T04:35:19.941Z,27.17
2019-01-29T04:37:51.624Z,25.67
2019-01-29T04:40:23.248Z,25.53
2019-01-29T04:42:54.735Z,60.47
2019-01-29T04:45:26.399Z,46.53
2019-01-29T04:47:59.241Z,32.17
2019-01-29T04:50:30.660Z,23.27
2019-01-29T04:53:02.295Z,19.57
2019-01-29T04:55:33.802Z,20.60
2019-01-29T04:58:06.846Z,20.53
2019-01-29T05:00:38.466Z,20.13
2019-01-29T05:03:11.145Z,21.03
2019-01-29T05:05:42.714Z,17.97
2019-01-29T05:08:15.635Z,19.10
2019-01-29T05:10:47.273Z,17.13
2019-01-29T05:13:18.982Z,21.10
2019-01-29T05:15:50.447Z,20.33
2019-01-29T05:18:22.250Z,21.77
2019-01-29T05:20:53.804Z,22.30
2019-01-29T05:23:25.379Z,23.23
2019-01-29T05:25:56.823Z,23.77
2019-01-29T05:28:28.534Z,23.90
2019-01-29T05:31:00.212Z,24.23
2019-01-29T05:33:31.864Z,27.20
2019-01-29T05:36:03.327Z,30.17
2019-01-29T05:38:34.978Z,31.73
2019-01-29T05:41:06.441Z,30.33
2019-01-29T05:43:38.035Z,31.13
2019-01-29T05:46:09.767Z,28.63
2019-01-29T05:48:41.206Z,29.43
2019-01-29T05:51:12.711Z,29.77
2019-01-29T05:53:44.322Z,28.10
2019-01-29T05:56:16.035Z,29.40
2019-01-29T05:58:48.765Z,29.87
2019-01-29T06:01:20.308Z,28.63
2019-01-29T06:03:51.942Z,29.50
2019-01-29T06:06:23.559Z,31.40
2019-01-29T06:08:56.377Z,31.87
2019-01-29T06:11:28.002Z,28.53
2019-01-29T06:13:59.554Z,29.73
2019-01-29T06:16:33.347Z,29.93
2019-01-29T06:19:05.061Z,29.90
2019-01-29T06:21:36.744Z,31.83
2019-01-29T06:24:08.554Z,30.07
2019-01-29T06:26:40.146Z,28.83
2019-01-29T06:29:12.836Z,28.13
2019-01-29T06:31:44.368Z,27.43
2019-01-29T06:34:16.061Z,29.20
2019-01-29T06:36:47.623Z,30.70
2019-01-29T06:39:23.213Z,30.07
2019-01-29T06:41:54.952Z,33.50
2019-01-29T06:44:26.534Z,28.47
2019-01-29T06:46:57.955Z,28.97
2019-01-29T06:49:29.660Z,31.53
2019-01-29T06:52:02.207Z,38.60
2019-01-29T06:54:34.445Z,37.23
2019-01-29T06:57:06.428Z,46.37
2019-01-29T06:59:37.963Z,62.53
2019-01-29T07:02:09.573Z,54.77
2019-01-29T07:04:41.150Z,46.23
2019-01-29T07:07:15.331Z,44.90
2019-01-29T07:09:47.052Z,36.83
2019-01-29T07:12:18.699Z,35.40
2019-01-29T07:14:50.208Z,36.50
2019-01-29T07:17:33.955Z,35.17
2019-01-29T07:20:08.578Z,29.27
2019-01-29T07:22:41.854Z,29.57
2019-01-29T07:25:13.787Z,28.87
2019-01-29T07:27:45.300Z,30.40
2019-01-29T07:30:17.103Z,31.13
2019-01-29T07:32:51.070Z,31.00
2019-01-29T07:35:22.691Z,34.67
2019-01-29T07:37:54.312Z,34.07
2019-01-29T07:40:26.120Z,42.90
2019-01-29T07:42:57.525Z,31.50
2019-01-29T07:45:31.847Z,32.33
2019-01-29T07:48:03.350Z,35.80
2019-01-29T07:50:34.973Z,33.63
2019-01-29T07:53:06.675Z,34.93
2019-01-29T07:55:38.196Z,34.33
2019-01-29T07:58:09.711Z,34.03
2019-01-29T08:00:42.282Z,33.40
2019-01-29T08:03:14.090Z,33.77
2019-01-29T08:05:45.597Z,31.03
2019-01-29T08:08:16.818Z,27.13
2019-01-29T08:10:47.965Z,29.00
2019-01-29T08:13:19.154Z,27.00
2019-01-29T08:15:50.363Z,27.37
2019-01-29T08:18:21.678Z,26.30
2019-01-29T08:20:53.025Z,28.50
2019-01-29T08:23:26.310Z,30.80
2019-01-29T08:25:57.672Z,30.50
2019-01-29T08:28:29.991Z,30.17
2019-01-29T08:31:01.142Z,31.87
2019-01-29T08:33:32.469Z,37.87
2019-01-29T08:36:03.865Z,32.97
2019-01-29T08:38:35.046Z,30.90
2019-01-29T08:41:06.355Z,29.83
2019-01-29T08:43:37.513Z,30.73
2019-01-29T08:46:09.019Z,36.23
2019-01-29T08:48:40.435Z,33.27
2019-01-29T08:51:11.654Z,41.37
2019-01-29T08:53:42.938Z,52.23
2019-01-29T08:56:14.556Z,74.40
2019-01-29T08:58:45.846Z,79.03
2019-01-29T09:01:17.336Z,76.90
2019-01-29T09:03:48.440Z,82.13
2019-01-29T09:06:19.828Z,76.50
2019-01-29T09:08:51.194Z,63.50
2019-01-29T09:11:22.483Z,57.83
2019-01-29T09:13:53.781Z,58.03
2019-01-29T09:16:24.896Z,54.43
2019-01-29T09:18:56.313Z,50.27
2019-01-29T09:21:27.686Z,49.20
2019-01-29T09:23:58.781Z,51.57
2019-01-29T09:26:30.014Z,53.83
2019-01-29T09:29:01.049Z,57.70
2019-01-29T09:31:32.475Z,71.20
2019-01-29T09:34:03.535Z,60.43
2019-01-29T09:36:37.122Z,53.93
2019-01-29T09:39:11.639Z,49.43
2019-01-29T09:41:42.923Z,41.97
2019-01-29T09:44:14.257Z,38.07
2019-01-29T09:46:45.425Z,36.43
2019-01-29T09:49:16.731Z,35.20
2019-01-29T09:51:48.055Z,36.73
2019-01-29T09:54:19.366Z,36.63
2019-01-29T09:56:50.669Z,40.60
2019-01-29T09:59:21.839Z,44.00
2019-01-29T10:01:53.113Z,42.53
2019-01-29T10:04:24.466Z,43.13
2019-01-29T10:06:55.876Z,53.67
2019-01-29T10:09:27.089Z,76.93
2019-01-29T10:11:58.124Z,32.93
2019-01-29T10:14:31.527Z,31.60
2019-01-29T10:17:02.783Z,27.27
2019-01-29T10:19:34.074Z,28.93
2019-01-29T10:22:05.592Z,31.77
2019-01-29T10:24:39.051Z,34.63
2019-01-29T10:27:10.562Z,34.43
2019-01-29T10:29:41.854Z,32.10
2019-01-29T10:32:13.196Z,28.33
2019-01-29T10:34:44.414Z,26.80
2019-01-29T10:37:15.617Z,27.27
2019-01-29T10:39:46.910Z,26.80
2019-01-29T10:42:18.444Z,25.33
2019-01-29T10:44:49.735Z,26.27
2019-01-29T10:47:22.384Z,25.30
2019-01-29T10:49:56.457Z,24.73
2019-01-29T10:52:27.853Z,24.73
2019-01-29T10:54:59.108Z,24.87
2019-01-29T10:57:31.595Z,22.07
2019-01-29T11:00:02.991Z,21.83
2019-01-29T11:02:34.643Z,19.03
2019-01-29T11:05:07.031Z,16.63
2019-01-29T11:07:40.981Z,18.47
2019-01-29T11:10:13.127Z,18.60
2019-01-29T11:12:44.425Z,19.20
2019-01-29T11:15:25.071Z,19.53
2019-01-29T11:17:56.369Z,18.53
2019-01-29T11:20:27.796Z,20.43
2019-01-29T11:22:59.066Z,21.23
2019-01-29T11:25:30.935Z,21.23
2019-01-29T11:28:02.216Z,22.77
2019-01-29T11:30:35.728Z,22.10
2019-01-29T11:33:07.702Z,23.10
2019-01-29T11:35:40.570Z,22.57
2019-01-29T11:38:11.949Z,21.40
2019-01-29T11:40:43.606Z,23.63
2019-01-29T11:43:15.010Z,21.10
2019-01-29T11:45:51.951Z,20.57
2019-01-29T11:48:25.004Z,19.27
2019-01-29T11:50:56.162Z,18.47
2019-01-29T11:53:27.345Z,17.47
2019-01-29T11:56:04.252Z,16.97
2019-01-29T11:58:32.020Z,16.03
2019-01-29T12:01:07.941Z,16.60
2019-01-29T12:03:39.315Z,17.70
2019-01-29T12:06:10.572Z,17.90
2019-01-29T12:08:42.030Z,18.63
2019-01-29T12:11:13.210Z,17.57
2019-01-29T12:13:44.447Z,18.00
2019-01-29T12:16:19.543Z,17.53
2019-01-29T12:18:48.873Z,17.70
2019-01-29T12:21:20.278Z,35.50
2019-01-29T12:23:51.611Z,45.43
2019-01-29T12:26:22.983Z,43.83
2019-01-29T12:28:54.330Z,40.37
2019-01-29T12:31:26.620Z,38.47
2019-01-29T12:33:57.932Z,39.77
2019-01-29T12:36:28.968Z,31.50
2019-01-29T12:39:00.154Z,51.10
2019-01-29T12:41:31.210Z,50.93
2019-01-29T12:44:02.530Z,39.33
2019-01-29T12:46:33.797Z,28.77
2019-01-29T12:49:05.464Z,21.40
2019-01-29T12:51:50.015Z,21.03
2019-01-29T12:54:21.404Z,20.97
2019-01-29T12:56:52.571Z,21.43
2019-01-29T12:59:23.823Z,21.17
2019-01-29T13:01:55.228Z,19.73
2019-01-29T13:04:26.402Z,20.87
2019-01-29T13:06:57.549Z,21.47
2019-01-29T13:09:28.814Z,21.67
2019-01-29T13:12:00.053Z,26.00
2019-01-29T13:14:32.303Z,31.40
2019-01-29T13:17:03.575Z,81.13
2019-01-29T13:19:36.429Z,45.57
2019-01-29T13:22:08.877Z,37.53
2019-01-29T13:24:41.367Z,37.87
2019-01-29T13:27:12.635Z,40.37
2019-01-29T13:29:43.914Z,42.13
2019-01-29T13:32:14.969Z,42.63
2019-01-29T13:34:46.217Z,40.57
2019-01-29T13:37:17.410Z,46.63
2019-01-29T13:39:48.731Z,47.87
2019-01-29T13:42:20.030Z,143.03
2019-01-29T13:44:51.304Z,78.03
2019-01-29T13:47:22.616Z,52.30
2019-01-29T13:49:53.952Z,62.23
2019-01-29T13:52:25.226Z,59.20
2019-01-29T13:54:56.580Z,62.37
2019-01-29T13:57:27.605Z,63.87
2019-01-29T13:59:58.965Z,69.23
2019-01-29T14:02:30.151Z,71.60
2019-01-29T14:05:01.391Z,70.73
2019-01-29T14:07:32.575Z,71.83
2019-01-29T14:10:03.886Z,68.13
2019-01-29T14:12:35.166Z,70.87
2019-01-29T14:15:07.679Z,82.23
2019-01-29T14:17:39.126Z,84.87
2019-01-29T14:20:13.879Z,85.90
2019-01-29T14:22:45.116Z,88.07
2019-01-29T14:25:16.439Z,98.60
2019-01-29T14:27:47.756Z,97.47
2019-01-29T14:30:20.091Z,98.17
2019-01-29T14:32:51.512Z,95.20
2019-01-29T14:35:23.101Z,93.17
2019-01-29T14:38:40.725Z,93.97
2019-01-29T14:41:12.073Z,88.53
2019-01-29T14:43:46.270Z,86.00
2019-01-29T14:46:19.428Z,87.70
2019-01-29T14:48:50.471Z,158.30
2019-01-29T14:51:23.473Z,109.73
2019-01-29T14:53:54.750Z,91.17
2019-01-29T14:56:26.141Z,91.57
2019-01-29T14:58:57.417Z,88.60
2019-01-29T15:01:29.153Z,85.23
2019-01-29T15:04:00.343Z,90.10
2019-01-29T15:06:32.497Z,91.67
2019-01-29T15:09:05.685Z,83.97
2019-01-29T15:11:36.941Z,86.07
2019-01-29T15:14:08.354Z,91.70
2019-01-29T15:16:58.561Z,91.57
2019-01-29T15:19:31.128Z,102.40
2019-01-29T15:22:02.390Z,94.47
2019-01-29T15:24:33.684Z,89.97
2019-01-29T15:27:05.998Z,88.27
2019-01-29T15:29:37.331Z,102.53
2019-01-29T15:32:08.564Z,102.87
2019-01-29T15:34:39.965Z,99.73
2019-01-29T15:37:11.285Z,97.60
2019-01-29T15:39:42.625Z,244.00
2019-01-29T15:42:14.014Z,127.10
2019-01-29T15:44:45.359Z,136.73
2019-01-29T15:47:16.553Z,132.37
2019-01-29T15:49:47.823Z,137.57
2019-01-29T15:52:20.162Z,136.77
2019-01-29T15:54:51.285Z,114.37
2019-01-29T15:57:22.513Z,106.47
2019-01-29T15:59:53.700Z,112.17
2019-01-29T16:02:24.848Z,112.77
2019-01-29T16:04:56.186Z,108.43
2019-01-29T16:07:27.497Z,111.37
2019-01-29T16:09:58.696Z,118.10
2019-01-29T16:12:30.799Z,114.90
2019-01-29T16:15:03.545Z,109.43
2019-01-29T16:17:34.855Z,104.53
2019-01-29T16:20:07.184Z,104.80
2019-01-29T16:22:38.654Z,132.80
2019-01-29T16:25:11.235Z,108.27
2019-01-29T16:27:42.650Z,106.90
2019-01-29T16:30:23.227Z,104.33
2019-01-29T16:32:54.592Z,104.53
2019-01-29T16:35:28.441Z,113.73
2019-01-29T16:38:00.131Z,94.23
2019-01-29T16:40:31.830Z,100.33
2019-01-29T16:43:03.111Z,94.17
2019-01-29T16:45:34.499Z,98.50
2019-01-29T16:48:07.377Z,92.03
2019-01-29T16:50:38.673Z,70.40
2019-01-29T16:53:10.351Z,70.73
2019-01-29T16:55:41.574Z,67.97
2019-01-29T16:58:12.876Z,59.97
2019-01-29T17:00:44.566Z,56.13
2019-01-29T17:03:15.921Z,58.50
2019-01-29T17:05:47.249Z,48.97
2019-01-29T17:08:18.767Z,48.67
2019-01-29T17:10:50.047Z,48.57
2019-01-29T17:13:23.887Z,44.73
2019-01-29T17:15:56.898Z,44.03
2019-01-29T17:18:28.187Z,44.90
2019-01-29T17:20:59.583Z,49.57
2019-01-29T17:23:30.986Z,54.43
2019-01-29T17:26:02.207Z,54.90
2019-01-29T17:28:33.561Z,59.63
2019-01-29T17:31:06.368Z,58.13
2019-01-29T17:33:37.711Z,98.27
2019-01-29T17:36:08.824Z,100.37
2019-01-29T17:38:44.727Z,103.03
2019-01-29T17:41:13.095Z,103.83
2019-01-29T17:43:44.289Z,115.90
2019-01-29T17:46:15.720Z,124.60
2019-01-29T17:48:46.997Z,131.20
2019-01-29T17:51:19.743Z,142.13
2019-01-29T17:53:50.973Z,141.60
2019-01-29T17:56:22.400Z,150.23
2019-01-29T17:58:53.759Z,184.83
2019-01-29T18:01:24.930Z,186.30
2019-01-29T18:03:56.088Z,180.40
2019-01-29T18:06:27.444Z,189.33
2019-01-29T18:08:58.774Z,211.17
2019-01-29T18:11:30.243Z,207.67
2019-01-29T18:14:01.414Z,242.03
2019-01-29T18:16:33.687Z,216.10
2019-01-29T18:19:05.357Z,215.97
2019-01-29T18:21:36.804Z,201.13
2019-01-29T18:24:08.181Z,196.60
2019-01-29T18:26:39.617Z,190.93
2019-01-29T18:29:10.887Z,199.83
2019-01-29T18:31:42.311Z,205.53
2019-01-29T18:34:13.416Z,245.03
2019-01-29T18:36:44.727Z,256.70
2019-01-29T18:39:16.052Z,261.37
2019-01-29T18:41:49.041Z,267.23
2019-01-29T18:44:20.194Z,277.00
2019-01-29T18:46:51.513Z,292.27
2019-01-29T18:49:22.533Z,281.83
2019-01-29T18:51:53.863Z,282.77
2019-01-29T18:54:25.068Z,278.87
2019-01-29T18:56:56.251Z,269.40
2019-01-29T18:59:27.373Z,267.77
2019-01-29T19:01:58.505Z,260.73
2019-01-29T19:04:29.866Z,258.30
2019-01-29T19:07:01.024Z,258.33
2019-01-29T19:09:32.289Z,260.37
2019-01-29T19:12:03.523Z,269.23
2019-01-29T19:14:34.749Z,269.13
2019-01-29T19:17:06.331Z,264.53
2019-01-29T19:19:37.606Z,295.73
2019-01-29T19:22:09.968Z,281.80
2019-01-29T19:24:41.346Z,282.87
2019-01-29T19:27:12.554Z,271.60
2019-01-29T19:29:44.781Z,274.90
2019-01-29T19:32:18.086Z,291.07
2019-01-29T19:34:49.526Z,300.07
2019-01-29T19:37:20.770Z,267.20
2019-01-29T19:39:52.170Z,275.53
2019-01-29T19:42:27.614Z,270.77
2019-01-29T19:44:56.552Z,248.23
2019-01-29T19:47:27.577Z,237.27
2019-01-29T19:49:58.867Z,234.13
2019-01-29T19:52:34.698Z,225.43
2019-01-29T19:55:07.523Z,231.20
2019-01-29T19:57:38.928Z,218.47
2019-01-29T20:00:15.058Z,215.03
2019-01-29T20:02:47.192Z,223.30
2019-01-29T20:05:18.754Z,227.13
2019-01-29T20:07:50.038Z,236.50
2019-01-29T20:10:21.733Z,223.90
2019-01-29T20:12:54.221Z,220.83
2019-01-29T20:17:30.180Z,155.10
2019-01-29T20:19:59.786Z,146.23
2019-01-29T20:22:29.557Z,147.90
2019-01-29T20:24:59.279Z,146.10
2019-01-29T20:27:29.038Z,141.07
2019-01-29T20:29:58.650Z,145.47
2019-01-29T20:32:28.480Z,140.50
2019-01-29T20:34:58.130Z,140.83
2019-01-29T20:37:27.626Z,141.87
2019-01-29T20:39:57.225Z,146.30
2019-01-29T20:42:26.951Z,145.50
2019-01-29T20:44:56.524Z,125.93
2019-01-29T20:47:26.342Z,132.87
2019-01-29T20:49:56.128Z,122.17
2019-01-29T20:52:25.890Z,120.00
2019-01-29T20:54:55.498Z,125.67
2019-01-29T20:57:25.244Z,110.00
2019-01-29T20:59:54.755Z,84.40
2019-01-29T21:02:24.468Z,87.97
2019-01-29T21:04:54.083Z,92.23
2019-01-29T21:07:23.901Z,90.63
2019-01-29T21:09:53.465Z,90.40
2019-01-29T21:12:23.119Z,88.37
2019-01-29T21:14:52.785Z,95.67
2019-01-29T21:17:22.453Z,95.67
2019-01-29T21:19:52.081Z,104.10
2019-01-29T21:22:21.723Z,101.73
2019-01-29T21:24:51.373Z,93.23
2019-01-29T21:27:21.214Z,90.03
2019-01-29T21:29:50.909Z,92.37
2019-01-29T21:32:20.393Z,90.20
2019-01-29T21:34:51.814Z,90.37
2019-01-29T21:37:21.487Z,66.13
2019-01-29T21:39:52.246Z,57.70
2019-01-29T21:42:21.875Z,54.07
2019-01-29T21:44:51.503Z,44.90
2019-01-29T21:47:21.172Z,43.10
2019-01-29T21:49:50.794Z,43.57
2019-01-29T21:52:20.466Z,51.97
2019-01-29T21:54:50.192Z,48.40
2019-01-29T21:57:19.849Z,58.53
2019-01-29T21:59:49.587Z,51.53
2019-01-29T22:02:19.386Z,49.47
2019-01-29T22:04:49.078Z,48.77
2019-01-29T22:07:19.623Z,48.70
2019-01-29T22:09:50.634Z,51.07
2019-01-29T22:12:20.427Z,55.33
2019-01-29T22:14:49.951Z,57.93
2019-01-29T22:17:19.578Z,56.43
2019-01-29T22:19:49.309Z,60.50
2019-01-29T22:22:18.969Z,66.17
2019-01-29T22:24:48.756Z,66.17
2019-01-29T22:27:18.489Z,67.17
2019-01-29T22:29:48.111Z,67.20
2019-01-29T22:32:17.694Z,70.07
2019-01-29T22:34:47.501Z,66.87
2019-01-29T22:37:17.243Z,70.37
2019-01-29T22:39:47.086Z,65.57
2019-01-29T22:42:16.801Z,67.30
2019-01-29T22:44:48.276Z,66.90
2019-01-29T22:47:17.927Z,66.97
2019-01-29T22:49:47.523Z,68.97
2019-01-29T22:52:17.184Z,66.83
2019-01-29T22:54:46.784Z,68.20
2019-01-29T22:57:16.437Z,70.47
2019-01-29T22:59:46.066Z,57.70
2019-01-29T23:02:15.865Z,60.13
2019-01-29T23:04:47.299Z,58.83
2019-01-29T23:07:37.052Z,65.87
2019-01-29T23:10:12.245Z,63.97
2019-01-29T23:12:42.005Z,63.10
2019-01-29T23:15:13.655Z,61.90
2019-01-29T23:17:43.523Z,62.17
2019-01-29T23:20:14.119Z,70.97
2019-01-29T23:22:43.584Z,68.83
2019-01-29T23:25:13.588Z,68.23
2019-01-29T23:27:43.511Z,67.10
2019-01-29T23:30:16.373Z,67.33
2019-01-29T23:32:46.069Z,64.83
2019-01-29T23:35:16.258Z,71.27
2019-01-29T23:37:45.821Z,68.03
2019-01-29T23:40:15.865Z,63.37
2019-01-29T23:42:45.818Z,60.80
2019-01-29T23:45:16.025Z,62.53
2019-01-29T23:47:45.637Z,59.57
2019-01-29T23:50:15.601Z,61.03
2019-01-29T23:52:45.218Z,58.83
2019-01-29T23:55:15.021Z,56.20
2019-01-29T23:57:44.796Z,55.27
